Pagina principale
METAR-TAF:

METAR-TAF

Aeroporti :

Aeroporto militare Mario de Bernardi

Pratica Di Mare, Italia

latitudine: 41-39N, longitudine: 012-27E, altezza: 6 m

Osservazione

Il bollettino è stato emesso 36 minuti fa, alle 00:55 UTC
Vento 7 kt da est/sud-est
Temperature 18°C
Umidità 83%
Pressione 1012 hPa
Visibilità 10 km o più
nessuna nube inferiore a 1500 m e nessun cumulonembo

METAR: LIRE 160055Z 11007KT CAVOK 18/15 Q1012 RMK SKC VIS MIN 9999 WIND THR13 /////KT WIND THR31 /////KT BLU

Ora: 03:31 (01:31 UTC)

Previsione

Il bollettino è stato emesso 2 ore e 31 minuti fa, alle 23:00 UTC
Previsione valida dal 16 alle 00 UTC al 16 alle 09 UTC
Vento 11 kt da sud/sud-est
Visibilità 10 km o più
nessuna nube inferiore a 1500 m e nessun cumulonembo

TAF: LIRE 152300Z 1600/1609 15011KT CAVOK

Osservazioni e previsioni meteorologiche di più di 4000 aeroporti (messaggi METAR e TAF).

Le stazioni disponibili sono rappresentate dai dischi gialli e rossi sulla carta.

Puntare il mouse per vedere il nome della stazione.

Clicca sopra per visualizzare le osservazioni e previsioni meteorologiche.

Per cambiare la mappa : fare clic sui pulsanti verdi con una croce nera per ingrandire, il pulsante verde con un trattino per diminuire, o sulla freccia verde per le mappe adiacenti.


METAR-TAF: